createdAt,value
2023-03-11T00:04:11.793Z,100.00
2023-03-11T00:09:14.652Z,100.00
2023-03-11T00:14:27.036Z,100.00
2023-03-11T00:19:29.447Z,100.00
2023-03-11T00:24:32.752Z,100.00
2023-03-11T00:29:35.122Z,100.00
2023-03-11T00:34:37.579Z,100.00
2023-03-11T00:39:40.197Z,100.00
2023-03-11T00:44:43.964Z,100.00
2023-03-11T00:49:49.284Z,100.00
2023-03-11T00:55:00.745Z,100.00
2023-03-11T01:00:06.952Z,100.00
2023-03-11T01:05:09.473Z,100.00
2023-03-11T01:10:11.934Z,100.00
2023-03-11T01:15:15.183Z,100.00
2023-03-11T01:20:17.656Z,100.00
2023-03-11T01:25:20.969Z,100.00
2023-03-11T01:30:24.251Z,100.00
2023-03-11T01:35:33.484Z,100.00
2023-03-11T01:40:36.832Z,100.00
2023-03-11T01:45:39.226Z,100.00
2023-03-11T01:50:42.456Z,100.00
2023-03-11T01:55:45.117Z,100.00
2023-03-11T02:00:48.256Z,100.00
2023-03-11T02:05:50.584Z,100.00
2023-03-11T02:10:53.767Z,100.00
2023-03-11T02:15:57.076Z,100.00
2023-03-11T02:20:59.462Z,100.00
2023-03-11T02:26:01.803Z,100.00
2023-03-11T02:31:05.020Z,100.00
2023-03-11T02:36:07.526Z,100.00
2023-03-11T02:41:09.918Z,100.00
2023-03-11T02:46:12.273Z,100.00
2023-03-11T02:51:14.778Z,100.00
2023-03-11T02:56:17.157Z,100.00
2023-03-11T03:01:19.546Z,100.00
2023-03-11T03:06:21.888Z,100.00
2023-03-11T03:11:24.572Z,100.00
2023-03-11T03:16:27.319Z,100.00
2023-03-11T03:21:29.692Z,100.00
2023-03-11T03:26:32.096Z,100.00
2023-03-11T03:31:34.509Z,100.00
2023-03-11T03:36:37.022Z,100.00
2023-03-11T03:41:39.356Z,100.00
2023-03-11T03:46:41.693Z,100.00
2023-03-11T03:51:44.491Z,100.00
2023-03-11T03:56:47.601Z,100.00
2023-03-11T04:01:50.758Z,100.00
2023-03-11T04:06:53.097Z,100.00
2023-03-11T04:11:55.406Z,100.00
2023-03-11T04:16:58.553Z,100.00
2023-03-11T04:22:00.982Z,100.00
2023-03-11T04:27:04.211Z,100.00
2023-03-11T04:32:06.630Z,100.00
2023-03-11T04:37:10.242Z,100.00
2023-03-11T04:42:14.029Z,100.00
2023-03-11T04:47:16.600Z,100.00
2023-03-11T04:52:18.947Z,100.00
2023-03-11T04:57:21.643Z,100.00
2023-03-11T05:02:24.777Z,100.00
2023-03-11T05:07:27.422Z,100.00
2023-03-11T05:12:29.809Z,100.00
2023-03-11T05:17:32.124Z,100.00
2023-03-11T05:22:35.035Z,100.00
2023-03-11T05:27:37.335Z,100.00
2023-03-11T05:32:39.835Z,100.00
2023-03-11T05:37:43.135Z,100.00
2023-03-11T05:42:45.620Z,100.00
2023-03-11T05:47:48.779Z,100.00
2023-03-11T05:52:51.105Z,100.00
2023-03-11T05:57:54.349Z,100.00
2023-03-11T06:02:56.891Z,100.00
2023-03-11T06:07:59.376Z,100.00
2023-03-11T06:13:02.175Z,100.00
2023-03-11T06:18:04.886Z,100.00
2023-03-11T06:23:07.577Z,100.00
2023-03-11T06:28:10.803Z,100.00
2023-03-11T06:33:16.117Z,100.00
2023-03-11T06:38:18.483Z,100.00
2023-03-11T06:43:20.895Z,100.00
2023-03-11T06:48:23.600Z,100.00
2023-03-11T06:53:25.953Z,100.00
2023-03-11T06:58:29.152Z,100.00
2023-03-11T07:03:43.663Z,100.00
2023-03-11T07:08:56.273Z,100.00
2023-03-11T07:14:08.335Z,100.00
2023-03-11T07:19:10.867Z,100.00
2023-03-11T07:24:14.061Z,100.00
2023-03-11T07:29:16.427Z,100.00
2023-03-11T07:34:18.970Z,100.00
2023-03-11T07:39:21.750Z,100.00
2023-03-11T07:44:25.173Z,100.00
2023-03-11T07:49:27.989Z,100.00
2023-03-11T07:54:30.382Z,100.00
2023-03-11T07:59:32.697Z,100.00
2023-03-11T08:04:35.061Z,100.00
2023-03-11T08:09:37.418Z,100.00
2023-03-11T08:14:40.257Z,100.00
2023-03-11T08:19:43.550Z,100.00
2023-03-11T08:24:46.733Z,100.00
2023-03-11T08:29:49.371Z,100.00
2023-03-11T08:34:51.734Z,100.00
2023-03-11T08:39:54.655Z,100.00
2023-03-11T08:44:57.230Z,100.00
2023-03-11T08:50:00.400Z,100.00
2023-03-11T08:55:04.930Z,99.60
2023-03-11T09:00:08.460Z,100.00
2023-03-11T09:05:11.082Z,100.00
2023-03-11T09:10:13.386Z,98.14
2023-03-11T09:15:15.804Z,91.95
2023-03-11T09:20:18.160Z,89.35
2023-03-11T09:25:20.573Z,86.40
2023-03-11T09:30:32.906Z,80.85
2023-03-11T09:35:42.759Z,75.62
2023-03-11T09:40:53.328Z,75.64
2023-03-11T09:45:56.491Z,72.04
2023-03-11T09:50:58.898Z,73.70
2023-03-11T09:56:02.405Z,73.82
2023-03-11T10:01:05.605Z,79.44
2023-03-11T10:06:08.608Z,81.56
2023-03-11T10:11:11.014Z,76.74
2023-03-11T10:16:14.503Z,75.78
2023-03-11T10:21:16.916Z,72.42
2023-03-11T10:26:20.079Z,74.85
2023-03-11T10:31:23.456Z,71.58
2023-03-11T10:36:27.208Z,71.14
2023-03-11T10:41:30.525Z,71.55
2023-03-11T10:46:33.718Z,69.12
2023-03-11T10:51:36.116Z,67.86
2023-03-11T10:56:38.530Z,62.91
2023-03-11T11:01:40.910Z,63.95
2023-03-11T11:06:44.118Z,69.72
2023-03-11T11:11:46.794Z,70.78
2023-03-11T11:16:49.173Z,67.80
2023-03-11T11:21:52.363Z,63.51
2023-03-11T11:26:54.704Z,63.00
2023-03-11T11:31:57.390Z,61.40
2023-03-11T11:37:00.484Z,60.34
2023-03-11T11:42:03.105Z,60.56
2023-03-11T11:47:06.452Z,61.14
2023-03-11T11:52:09.705Z,61.30
2023-03-11T11:57:22.037Z,64.38
2023-03-11T12:02:25.005Z,63.04
2023-03-11T12:07:27.429Z,60.52
2023-03-11T12:12:29.816Z,59.06
2023-03-11T12:17:33.050Z,67.82
2023-03-11T12:22:35.421Z,66.17
2023-03-11T12:27:37.760Z,62.37
2023-03-11T12:32:40.181Z,66.07
2023-03-11T12:37:42.821Z,65.24
2023-03-11T12:42:46.088Z,58.84
2023-03-11T12:47:48.462Z,58.50
2023-03-11T12:52:50.838Z,58.45
2023-03-11T12:57:53.940Z,62.00
2023-03-11T13:02:56.500Z,63.72
2023-03-11T13:07:59.269Z,65.94
2023-03-11T13:13:01.677Z,66.44
2023-03-11T13:18:05.252Z,66.38
2023-03-11T13:23:09.054Z,65.68
2023-03-11T13:28:11.602Z,64.03
2023-03-11T13:33:14.381Z,65.76
2023-03-11T13:38:17.461Z,63.63
2023-03-11T13:43:20.127Z,63.53
2023-03-11T13:48:31.313Z,63.64
2023-03-11T13:53:34.010Z,61.30
2023-03-11T13:58:36.322Z,62.65
2023-03-11T14:03:39.133Z,62.53
2023-03-11T14:08:41.513Z,65.37
2023-03-11T14:13:43.908Z,69.55
2023-03-11T14:18:48.366Z,71.05
2023-03-11T14:23:51.573Z,63.37
2023-03-11T14:29:03.911Z,63.20
2023-03-11T14:34:07.593Z,62.61
2023-03-11T14:39:10.036Z,61.86
2023-03-11T14:44:13.113Z,63.38
2023-03-11T14:49:15.475Z,65.66
2023-03-11T14:54:18.659Z,65.51
2023-03-11T14:59:22.207Z,64.53
2023-03-11T15:04:27.163Z,65.07
2023-03-11T15:09:29.939Z,68.66
2023-03-11T15:14:32.409Z,72.38
2023-03-11T15:19:43.076Z,72.85
2023-03-11T15:24:49.181Z,74.65
2023-03-11T15:29:52.582Z,79.01
2023-03-11T15:34:55.385Z,80.39
2023-03-11T15:39:58.151Z,82.49
2023-03-11T15:45:10.564Z,81.30
2023-03-11T15:50:26.713Z,82.74
2023-03-11T15:55:31.037Z,82.37
2023-03-11T16:00:41.820Z,80.32
2023-03-11T16:05:45.772Z,78.67
2023-03-11T16:10:48.919Z,81.22
2023-03-11T16:16:04.199Z,84.06
2023-03-11T16:21:11.591Z,86.54
2023-03-11T16:26:17.046Z,87.36
2023-03-11T16:31:19.933Z,87.28
2023-03-11T16:36:22.312Z,88.57
2023-03-11T16:41:25.021Z,87.78
2023-03-11T16:46:28.121Z,89.57
2023-03-11T16:51:31.224Z,87.95
2023-03-11T16:56:33.691Z,89.95
2023-03-11T17:01:38.512Z,90.44
2023-03-11T17:06:41.291Z,91.12
2023-03-11T17:11:44.182Z,92.07
2023-03-11T17:16:47.264Z,90.52
2023-03-11T17:21:49.660Z,91.43
2023-03-11T17:26:52.826Z,92.05
2023-03-11T17:31:55.222Z,90.95
2023-03-11T17:36:57.746Z,93.22
2023-03-11T17:42:02.445Z,93.99
2023-03-11T17:47:04.882Z,96.48
2023-03-11T17:52:07.436Z,98.47
2023-03-11T17:57:09.774Z,98.64
2023-03-11T18:02:13.102Z,98.81
2023-03-11T18:07:16.366Z,97.24
2023-03-11T18:12:19.904Z,94.43
2023-03-11T18:17:22.320Z,96.46
2023-03-11T18:22:25.081Z,96.56
2023-03-11T18:27:28.323Z,96.01
2023-03-11T18:32:30.673Z,94.98
2023-03-11T18:37:33.936Z,95.22
2023-03-11T18:42:37.144Z,96.77
2023-03-11T18:47:39.524Z,99.22
2023-03-11T18:52:41.854Z,100.00
2023-03-11T18:57:44.628Z,99.11
2023-03-11T19:02:47.841Z,98.80
2023-03-11T19:07:50.228Z,98.66
2023-03-11T19:12:53.320Z,99.20
2023-03-11T19:18:06.263Z,100.00
2023-03-11T19:23:09.271Z,100.00
2023-03-11T19:28:17.463Z,100.00
2023-03-11T19:33:20.282Z,100.00
2023-03-11T19:38:26.745Z,100.00
2023-03-11T19:43:29.053Z,100.00
2023-03-11T19:48:31.735Z,100.00
2023-03-11T19:53:34.083Z,100.00
2023-03-11T19:58:37.429Z,100.00
2023-03-11T20:03:39.709Z,100.00
2023-03-11T20:08:42.521Z,100.00
2023-03-11T20:13:44.849Z,100.00
2023-03-11T20:18:47.182Z,100.00
2023-03-11T20:23:51.037Z,100.00
2023-03-11T20:28:53.521Z,100.00
2023-03-11T20:33:56.566Z,100.00
2023-03-11T20:38:59.083Z,100.00
2023-03-11T20:44:01.529Z,100.00
2023-03-11T20:49:04.062Z,100.00
2023-03-11T20:54:06.835Z,100.00
2023-03-11T20:59:09.974Z,100.00
2023-03-11T21:04:13.595Z,100.00
2023-03-11T21:09:18.021Z,100.00
2023-03-11T21:14:20.664Z,100.00
2023-03-11T21:19:23.142Z,100.00
2023-03-11T21:24:25.681Z,100.00
2023-03-11T21:29:28.741Z,100.00
2023-03-11T21:34:31.159Z,100.00
2023-03-11T21:39:33.480Z,100.00
2023-03-11T21:44:35.819Z,100.00
2023-03-11T21:49:39.452Z,100.00
2023-03-11T21:54:42.806Z,100.00
2023-03-11T21:59:45.197Z,100.00
2023-03-11T22:04:48.538Z,100.00
2023-03-11T22:09:51.911Z,100.00
2023-03-11T22:14:55.132Z,100.00
2023-03-11T22:19:57.706Z,100.00
2023-03-11T22:25:00.470Z,100.00
2023-03-11T22:30:04.147Z,100.00
2023-03-11T22:35:06.827Z,100.00
2023-03-11T22:40:10.001Z,100.00
2023-03-11T22:45:13.213Z,100.00
2023-03-11T22:50:15.890Z,100.00
2023-03-11T22:55:19.138Z,100.00
2023-03-11T23:00:22.444Z,100.00
2023-03-11T23:05:41.535Z,100.00
2023-03-11T23:10:43.889Z,100.00
2023-03-11T23:15:47.029Z,100.00
2023-03-11T23:20:50.106Z,100.00
2023-03-11T23:25:53.193Z,100.00
2023-03-11T23:30:56.327Z,100.00
2023-03-11T23:35:59.535Z,100.00
2023-03-11T23:41:01.898Z,100.00
2023-03-11T23:46:04.468Z,100.00
2023-03-11T23:51:08.237Z,100.00
2023-03-11T23:56:10.582Z,100.00
